createdAt,value
2017-10-30T00:01:06.507Z,3.90
2017-10-30T00:03:32.272Z,1.90
2017-10-30T00:05:58.077Z,3.57
2017-10-30T00:08:23.835Z,2.97
2017-10-30T00:10:49.592Z,2.83
2017-10-30T00:13:15.344Z,3.10
2017-10-30T00:15:41.127Z,2.97
2017-10-30T00:18:06.883Z,3.20
2017-10-30T00:20:32.639Z,2.50
2017-10-30T00:22:58.416Z,2.13
2017-10-30T00:25:24.187Z,3.10
2017-10-30T00:27:49.965Z,3.27
2017-10-30T00:30:15.740Z,2.63
2017-10-30T00:32:41.527Z,2.50
2017-10-30T00:35:07.292Z,2.73
2017-10-30T00:37:33.058Z,2.80
2017-10-30T00:39:58.849Z,2.50
2017-10-30T00:42:24.611Z,2.90
2017-10-30T00:44:50.372Z,2.17
2017-10-30T00:47:16.156Z,2.53
2017-10-30T00:49:41.925Z,2.63
2017-10-30T00:52:07.672Z,2.20
2017-10-30T00:54:33.436Z,2.67
2017-10-30T00:56:59.207Z,3.07
2017-10-30T00:59:24.967Z,2.40
2017-10-30T01:01:50.740Z,2.50
2017-10-30T01:04:16.527Z,2.53
2017-10-30T01:06:42.284Z,2.20
2017-10-30T01:09:08.020Z,2.37
2017-10-30T01:11:33.800Z,3.77
2017-10-30T01:13:59.564Z,3.17
2017-10-30T01:16:25.348Z,3.23
2017-10-30T01:18:51.183Z,3.70
2017-10-30T01:21:16.941Z,2.60
2017-10-30T01:23:42.729Z,2.90
2017-10-30T01:26:08.485Z,2.33
2017-10-30T01:28:34.272Z,2.17
2017-10-30T01:31:00.060Z,3.53
2017-10-30T01:33:25.886Z,2.63
2017-10-30T01:35:51.650Z,2.73
2017-10-30T01:38:17.413Z,2.63
2017-10-30T01:40:43.182Z,2.47
2017-10-30T01:43:08.952Z,2.37
2017-10-30T01:45:34.718Z,2.43
2017-10-30T01:48:00.564Z,2.53
2017-10-30T01:50:26.341Z,3.40
2017-10-30T01:52:52.099Z,2.90
2017-10-30T01:55:17.889Z,3.10
2017-10-30T01:57:43.694Z,2.40
2017-10-30T02:00:09.472Z,2.30
2017-10-30T02:02:35.304Z,2.60
2017-10-30T02:05:01.056Z,2.17
2017-10-30T02:07:26.818Z,2.20
2017-10-30T02:09:52.604Z,3.23
2017-10-30T02:12:18.380Z,3.00
2017-10-30T02:14:44.173Z,2.90
2017-10-30T02:17:09.962Z,2.47
2017-10-30T02:19:35.747Z,2.50
2017-10-30T02:22:01.524Z,2.37
2017-10-30T02:24:27.307Z,2.30
2017-10-30T02:26:53.057Z,3.00
2017-10-30T02:29:18.869Z,4.00
2017-10-30T02:31:44.642Z,2.80
2017-10-30T02:34:10.398Z,2.70
2017-10-30T02:36:36.190Z,3.13
2017-10-30T02:39:01.978Z,3.47
2017-10-30T02:41:27.806Z,2.60
2017-10-30T02:43:53.591Z,2.47
2017-10-30T02:46:19.376Z,3.37
2017-10-30T02:48:45.184Z,2.40
2017-10-30T02:51:10.950Z,2.70
2017-10-30T02:53:36.751Z,3.30
2017-10-30T02:56:02.504Z,3.10
2017-10-30T02:58:28.320Z,2.37
2017-10-30T03:00:54.134Z,3.27
2017-10-30T03:03:19.909Z,3.60
2017-10-30T03:05:45.704Z,2.80
2017-10-30T03:08:11.496Z,2.83
2017-10-30T03:10:37.286Z,3.77
2017-10-30T03:13:03.063Z,3.13
2017-10-30T03:15:28.846Z,2.93
2017-10-30T03:17:54.643Z,5.50
2017-10-30T03:20:20.407Z,3.03
2017-10-30T03:22:47.710Z,2.93
2017-10-30T03:25:13.718Z,2.75
2017-10-30T03:27:40.343Z,2.23
2017-10-30T03:30:06.165Z,2.80
2017-10-30T03:32:31.939Z,2.73
2017-10-30T03:34:57.736Z,3.60
2017-10-30T03:37:23.529Z,2.77
2017-10-30T03:39:49.298Z,3.27
2017-10-30T03:42:15.079Z,2.53
2017-10-30T03:44:40.891Z,3.37
2017-10-30T03:47:06.703Z,3.57
2017-10-30T03:49:32.515Z,3.80
2017-10-30T03:51:58.311Z,3.60
2017-10-30T03:54:24.083Z,4.40
2017-10-30T03:56:49.883Z,4.00
2017-10-30T03:59:15.639Z,3.30
2017-10-30T04:01:41.424Z,4.40
2017-10-30T04:04:07.227Z,3.20
2017-10-30T04:06:33.015Z,3.50
2017-10-30T04:08:58.801Z,4.10
2017-10-30T04:11:24.563Z,2.90
2017-10-30T04:13:53.496Z,3.60
2017-10-30T04:16:19.235Z,3.53
2017-10-30T04:18:44.982Z,3.00
2017-10-30T04:21:10.750Z,3.17
2017-10-30T04:23:36.513Z,3.10
2017-10-30T04:26:02.312Z,3.20
2017-10-30T04:28:28.071Z,4.30
2017-10-30T04:30:53.860Z,5.90
2017-10-30T04:33:19.639Z,3.20
2017-10-30T04:35:45.413Z,3.27
2017-10-30T04:38:11.199Z,2.97
2017-10-30T04:40:36.973Z,3.80
2017-10-30T04:43:02.731Z,2.90
2017-10-30T04:45:28.499Z,2.83
2017-10-30T04:47:54.279Z,3.10
2017-10-30T04:50:20.036Z,3.90
2017-10-30T04:52:45.801Z,3.50
2017-10-30T04:55:11.576Z,4.67
2017-10-30T04:57:37.343Z,4.07
2017-10-30T05:00:03.312Z,2.97
2017-10-30T05:02:29.091Z,3.33
2017-10-30T05:04:54.845Z,3.27
2017-10-30T05:07:20.615Z,4.30
2017-10-30T05:09:46.372Z,4.27
2017-10-30T05:12:12.122Z,2.80
2017-10-30T05:14:37.889Z,3.20
2017-10-30T05:17:03.668Z,3.93
2017-10-30T05:19:29.436Z,3.47
2017-10-30T05:21:55.221Z,3.17
2017-10-30T05:24:20.979Z,3.03
2017-10-30T05:26:46.789Z,3.20
2017-10-30T05:29:12.543Z,3.60
2017-10-30T05:31:38.314Z,3.47
2017-10-30T05:34:04.092Z,4.00
2017-10-30T05:36:29.887Z,4.60
2017-10-30T05:38:55.704Z,3.23
2017-10-30T05:41:22.117Z,3.33
2017-10-30T05:43:47.883Z,3.00
2017-10-30T05:46:13.630Z,6.50
2017-10-30T05:48:39.422Z,3.03
2017-10-30T05:51:05.215Z,3.80
2017-10-30T05:53:30.984Z,3.77
2017-10-30T05:55:56.781Z,5.00
2017-10-30T05:58:22.595Z,4.00
2017-10-30T06:00:48.384Z,5.00
2017-10-30T06:03:14.129Z,4.57
2017-10-30T06:05:39.951Z,3.70
2017-10-30T06:08:05.776Z,4.27
2017-10-30T06:10:31.543Z,3.03
2017-10-30T06:12:57.339Z,3.73
2017-10-30T06:15:23.307Z,3.27
2017-10-30T06:17:49.051Z,3.33
2017-10-30T06:20:14.842Z,4.23
2017-10-30T06:22:40.607Z,3.90
2017-10-30T06:25:06.358Z,3.20
2017-10-30T06:27:32.171Z,5.33
2017-10-30T06:29:57.971Z,5.20
2017-10-30T06:32:23.763Z,2.80
2017-10-30T06:34:49.583Z,3.40
2017-10-30T06:37:15.335Z,2.73
2017-10-30T06:39:41.123Z,9.77
2017-10-30T06:42:06.879Z,7.43
2017-10-30T06:44:32.663Z,3.23
2017-10-30T06:46:58.420Z,3.43
2017-10-30T06:49:24.188Z,3.33
2017-10-30T06:51:49.946Z,3.87
2017-10-30T06:54:15.728Z,4.23
2017-10-30T06:56:41.573Z,5.53
2017-10-30T06:59:07.316Z,3.00
2017-10-30T07:01:33.099Z,3.80
2017-10-30T07:03:58.863Z,4.47
2017-10-30T07:06:24.632Z,4.90
2017-10-30T07:08:50.412Z,4.10
2017-10-30T07:11:16.190Z,3.90
2017-10-30T07:13:41.989Z,3.33
2017-10-30T07:16:07.796Z,3.93
2017-10-30T07:18:33.564Z,3.33
2017-10-30T07:20:59.343Z,4.87
2017-10-30T07:23:25.098Z,4.53
2017-10-30T07:25:50.867Z,5.07
2017-10-30T07:28:16.656Z,4.90
2017-10-30T07:30:42.445Z,4.40
2017-10-30T07:33:08.212Z,4.03
2017-10-30T07:35:33.999Z,5.43
2017-10-30T07:37:59.751Z,4.10
2017-10-30T07:40:25.518Z,3.30
2017-10-30T07:42:51.300Z,3.30
2017-10-30T07:45:17.088Z,3.00
2017-10-30T07:47:46.808Z,2.97
2017-10-30T07:50:12.579Z,3.67
2017-10-30T07:52:38.388Z,3.73
2017-10-30T07:55:04.171Z,3.10
2017-10-30T07:57:29.952Z,3.40
2017-10-30T07:59:55.748Z,4.07
2017-10-30T08:02:21.548Z,3.57
2017-10-30T08:04:47.522Z,5.77
2017-10-30T08:07:13.396Z,5.00
2017-10-30T08:09:39.173Z,4.50
2017-10-30T08:12:04.944Z,3.80
2017-10-30T08:14:30.720Z,4.03
2017-10-30T08:16:56.552Z,4.30
2017-10-30T08:19:22.329Z,3.30
2017-10-30T08:21:48.119Z,4.10
2017-10-30T08:24:13.906Z,3.20
2017-10-30T08:26:39.692Z,3.03
2017-10-30T08:29:05.572Z,3.53
2017-10-30T08:31:31.386Z,4.20
2017-10-30T08:33:57.147Z,3.90
2017-10-30T08:36:22.947Z,3.10
2017-10-30T08:38:48.715Z,4.43
2017-10-30T08:41:14.508Z,3.20
2017-10-30T08:43:40.307Z,3.13
2017-10-30T08:46:06.074Z,3.40
2017-10-30T08:48:31.837Z,4.63
2017-10-30T08:50:57.685Z,4.10
2017-10-30T08:53:23.490Z,5.10
2017-10-30T08:55:49.288Z,3.20
2017-10-30T08:58:15.065Z,3.30
2017-10-30T09:00:40.881Z,4.60
2017-10-30T09:03:06.684Z,3.53
2017-10-30T09:05:32.458Z,3.53
2017-10-30T09:07:58.244Z,3.10
2017-10-30T09:10:24.036Z,3.20
2017-10-30T09:12:49.823Z,3.53
2017-10-30T09:15:15.583Z,3.80
2017-10-30T09:17:41.375Z,3.40
2017-10-30T09:20:07.145Z,4.43
2017-10-30T09:22:32.931Z,3.90
2017-10-30T09:24:58.748Z,4.00
2017-10-30T09:27:24.559Z,3.30
2017-10-30T09:29:50.315Z,3.50
2017-10-30T09:32:16.113Z,5.00
2017-10-30T09:34:41.916Z,3.53
2017-10-30T09:37:07.694Z,2.87
2017-10-30T09:39:33.472Z,4.50
2017-10-30T09:41:59.251Z,4.63
2017-10-30T09:44:25.052Z,2.90
2017-10-30T09:46:50.809Z,4.67
2017-10-30T09:49:16.602Z,3.10
2017-10-30T09:51:42.395Z,3.40
2017-10-30T09:54:08.168Z,5.60
2017-10-30T09:56:33.974Z,3.27
2017-10-30T09:58:59.748Z,2.47
2017-10-30T10:01:25.523Z,3.10
2017-10-30T10:03:51.347Z,4.40
2017-10-30T10:06:17.127Z,3.30
2017-10-30T10:08:42.896Z,3.43
2017-10-30T10:11:08.712Z,3.57
2017-10-30T10:13:34.582Z,3.47
2017-10-30T10:16:00.416Z,4.40
2017-10-30T10:18:26.187Z,4.07
2017-10-30T10:20:51.980Z,3.20
2017-10-30T10:23:17.759Z,3.13
2017-10-30T10:25:43.547Z,2.93
2017-10-30T10:28:09.303Z,3.10
2017-10-30T10:30:35.097Z,2.80
2017-10-30T10:33:00.890Z,4.67
2017-10-30T10:35:26.659Z,3.53
2017-10-30T10:37:52.424Z,4.00
2017-10-30T10:40:18.296Z,2.90
2017-10-30T10:42:44.079Z,3.10
2017-10-30T10:45:09.844Z,3.27
2017-10-30T10:47:35.665Z,4.17
2017-10-30T10:50:01.450Z,2.53
2017-10-30T10:52:27.261Z,3.90
2017-10-30T10:54:53.019Z,3.50
2017-10-30T10:57:18.787Z,3.70
2017-10-30T10:59:44.546Z,3.50
2017-10-30T11:02:10.348Z,3.90
2017-10-30T11:04:36.124Z,3.43
2017-10-30T11:07:01.887Z,4.20
2017-10-30T11:09:27.665Z,2.63
2017-10-30T11:11:53.455Z,3.67
2017-10-30T11:14:19.223Z,4.47
2017-10-30T11:16:45.003Z,3.70
2017-10-30T11:19:10.855Z,3.13
2017-10-30T11:21:36.653Z,2.67
2017-10-30T11:24:02.455Z,3.37
2017-10-30T11:26:28.204Z,3.10
2017-10-30T11:28:54.021Z,2.93
2017-10-30T11:31:19.791Z,3.30
2017-10-30T11:33:45.551Z,2.90
2017-10-30T11:36:11.319Z,2.47
2017-10-30T11:38:37.087Z,3.80
2017-10-30T11:41:02.899Z,3.17
2017-10-30T11:43:28.670Z,4.77
2017-10-30T11:45:54.481Z,3.60
2017-10-30T11:48:20.290Z,2.80
2017-10-30T11:50:46.059Z,2.97
2017-10-30T11:53:11.848Z,2.07
2017-10-30T11:55:37.654Z,3.00
2017-10-30T11:58:04.167Z,2.77
2017-10-30T12:00:29.945Z,3.50
2017-10-30T12:02:55.749Z,3.37
2017-10-30T12:05:21.496Z,3.10
2017-10-30T12:07:47.288Z,3.43
2017-10-30T12:10:13.044Z,2.97
2017-10-30T12:12:39.002Z,2.63
2017-10-30T12:15:04.839Z,2.95
2017-10-30T12:17:30.619Z,3.30
2017-10-30T12:19:56.410Z,3.23
2017-10-30T12:22:22.187Z,2.90
2017-10-30T12:24:47.935Z,2.67
2017-10-30T12:27:13.715Z,2.40
2017-10-30T12:29:39.496Z,2.60
2017-10-30T12:32:05.278Z,2.20
2017-10-30T12:34:31.042Z,2.23
2017-10-30T12:36:56.795Z,2.97
2017-10-30T12:39:22.624Z,2.50
2017-10-30T12:41:48.375Z,2.97
2017-10-30T12:44:14.163Z,3.17
2017-10-30T12:46:39.913Z,2.37
2017-10-30T12:49:05.699Z,2.33
2017-10-30T12:51:31.503Z,2.83
2017-10-30T12:53:57.275Z,3.20
2017-10-30T12:56:23.075Z,3.20
2017-10-30T12:58:48.875Z,2.77
2017-10-30T13:01:14.677Z,2.83
2017-10-30T13:03:40.447Z,2.23
2017-10-30T13:06:06.202Z,2.27
2017-10-30T13:08:31.983Z,3.00
2017-10-30T13:10:57.765Z,2.70
2017-10-30T13:13:23.550Z,3.37
2017-10-30T13:15:49.322Z,2.10
2017-10-30T13:18:15.095Z,3.23
2017-10-30T13:20:40.884Z,2.30
2017-10-30T13:23:06.668Z,2.50
2017-10-30T13:25:32.452Z,2.43
2017-10-30T13:27:58.239Z,3.50
2017-10-30T13:30:23.996Z,3.40
2017-10-30T13:32:49.778Z,3.40
2017-10-30T13:35:15.555Z,2.57
2017-10-30T13:37:41.319Z,2.70
2017-10-30T13:40:07.117Z,2.57
2017-10-30T13:42:32.874Z,2.13
2017-10-30T13:44:58.641Z,5.63
2017-10-30T13:47:24.416Z,3.83
2017-10-30T13:49:50.191Z,2.33
2017-10-30T13:52:15.979Z,3.10
2017-10-30T13:54:41.758Z,2.97
2017-10-30T13:57:07.528Z,3.70
2017-10-30T13:59:33.312Z,3.10
2017-10-30T14:01:59.066Z,2.70
2017-10-30T14:04:24.815Z,2.53
2017-10-30T14:06:50.588Z,2.77
2017-10-30T14:09:16.358Z,2.43
2017-10-30T14:11:42.115Z,2.77
2017-10-30T14:14:07.895Z,2.57
2017-10-30T14:16:33.670Z,3.13
2017-10-30T14:18:59.531Z,3.10
2017-10-30T14:21:25.367Z,3.40
2017-10-30T14:23:51.151Z,3.60
2017-10-30T14:26:16.984Z,3.63
2017-10-30T14:28:42.811Z,2.63
2017-10-30T14:31:08.600Z,2.80
2017-10-30T14:33:34.395Z,3.33
2017-10-30T14:36:00.174Z,3.00
2017-10-30T14:38:26.016Z,2.87
2017-10-30T14:40:51.855Z,2.63
2017-10-30T14:43:17.660Z,3.67
2017-10-30T14:45:43.504Z,3.33
2017-10-30T14:48:09.275Z,3.50
2017-10-30T14:50:35.063Z,3.20
2017-10-30T14:53:00.871Z,2.93
2017-10-30T14:55:26.649Z,3.43
2017-10-30T14:57:52.448Z,3.70
2017-10-30T15:00:19.028Z,7.10
2017-10-30T15:02:44.858Z,9.15
2017-10-30T15:05:10.631Z,2.70
2017-10-30T15:07:36.411Z,2.50
2017-10-30T15:10:02.225Z,3.10
2017-10-30T15:12:27.987Z,2.93
2017-10-30T15:14:53.779Z,2.80
2017-10-30T15:17:19.604Z,2.43
2017-10-30T15:19:45.435Z,3.50
2017-10-30T15:22:11.407Z,2.80
2017-10-30T15:24:37.214Z,3.37
2017-10-30T15:27:03.010Z,2.50
2017-10-30T15:29:28.823Z,3.00
2017-10-30T15:31:54.647Z,3.20
2017-10-30T15:34:20.413Z,4.10
2017-10-30T15:36:46.187Z,1.90
2017-10-30T15:39:11.992Z,2.43
2017-10-30T15:41:37.787Z,2.93
2017-10-30T15:44:03.559Z,2.50
2017-10-30T15:46:29.366Z,3.00
2017-10-30T15:48:55.173Z,3.20
2017-10-30T15:51:20.969Z,2.60
2017-10-30T15:53:46.775Z,2.60
2017-10-30T15:56:12.547Z,3.00
2017-10-30T15:58:38.341Z,3.90
2017-10-30T16:01:04.105Z,3.03
2017-10-30T16:03:29.896Z,3.67
2017-10-30T16:05:55.703Z,2.83
2017-10-30T16:08:21.470Z,2.87
2017-10-30T16:10:47.247Z,3.37
2017-10-30T16:13:13.035Z,2.60
2017-10-30T16:15:38.843Z,3.47
2017-10-30T16:18:04.695Z,3.20
2017-10-30T16:20:54.684Z,2.70
2017-10-30T16:23:51.689Z,2.90
2017-10-30T16:39:43.219Z,2.87
2017-10-30T16:42:32.135Z,3.30
2017-10-30T17:01:44.635Z,3.92
2017-10-30T17:04:34.590Z,5.43
2017-10-30T17:23:46.327Z,4.10
2017-10-30T17:26:35.879Z,3.97
2017-10-30T17:29:32.537Z,4.15
2017-10-30T17:48:41.326Z,4.32
2017-10-30T18:07:53.530Z,8.02
2017-10-30T18:27:28.253Z,6.80
2017-10-30T18:46:44.583Z,4.37
2017-10-30T18:49:43.343Z,4.45
2017-10-30T18:52:09.131Z,3.92
2017-10-30T19:11:45.479Z,5.93
2017-10-30T19:14:11.248Z,6.95
2017-10-30T19:17:01.015Z,7.07
2017-10-30T19:19:59.040Z,6.47
2017-10-30T19:39:20.246Z,6.18
2017-10-30T19:42:17.465Z,5.80
2017-10-30T19:45:14.491Z,5.95
2017-10-30T19:48:11.367Z,7.18
2017-10-30T19:57:48.174Z,10.00
2017-10-30T20:00:37.615Z,9.30
2017-10-30T20:03:34.579Z,7.55
2017-10-30T20:19:25.503Z,6.57
2017-10-30T20:22:14.524Z,5.80
2017-10-30T20:25:11.956Z,6.05
2017-10-30T20:44:23.326Z,4.90
2017-10-30T20:47:20.239Z,4.75
2017-10-30T20:50:18.008Z,5.00
2017-10-30T20:53:15.494Z,4.85
2017-10-30T20:56:13.212Z,6.75
2017-10-30T20:59:10.195Z,13.00
2017-10-30T21:02:06.975Z,11.07
2017-10-30T21:04:32.780Z,9.63
2017-10-30T21:07:22.375Z,9.90
2017-10-30T21:10:20.202Z,10.65
2017-10-30T21:13:17.265Z,11.45
2017-10-30T21:32:32.905Z,17.00
2017-10-30T21:35:29.759Z,14.60
2017-10-30T21:48:00.252Z,9.25
2017-10-30T21:50:49.917Z,10.40
2017-10-30T22:10:00.912Z,10.20
2017-10-30T22:12:49.871Z,10.20
2017-10-30T22:15:47.496Z,9.15
2017-10-30T22:18:44.151Z,9.43
2017-10-30T22:31:41.419Z,10.05
2017-10-30T22:34:30.695Z,11.75
2017-10-30T22:53:43.113Z,8.25
2017-10-30T22:56:32.092Z,9.10
2017-10-30T22:59:28.950Z,8.85
2017-10-30T23:15:34.085Z,10.20
2017-10-30T23:18:23.864Z,11.80
2017-10-30T23:21:21.691Z,11.95
2017-10-30T23:24:18.824Z,11.68
2017-10-30T23:27:16.711Z,11.68
2017-10-30T23:30:14.629Z,11.73
2017-10-30T23:39:23.471Z,10.07
2017-10-30T23:59:00.153Z,7.90
